To NAV CANADA Home Page Login to a new session Search on AWWS site Feedback and Comments Disclaimer Vers la page française équivalente Tips FAQ What's new on the site To the Forecasts and Observations / NOTAM section To "File a Flight Plan" website Publications and other links Update of the User's profile FIC Telephone Numbers My Weather Data Folder Route Weather Data Regional Weather Data Local Weather Data To the Forecasts and Observations / NOTAM section
Request Generated 01/17/2017 at 04:55:55 UTC . Weather information available at that time is displayed.

METAR/TAF

SUDBURY/ON    

METAR CYSB 170400Z 04007KT 15SM SCT250 M07/M08 A3013 RMK CI4 SLP227=
METAR CYSB 170300Z 01004KT 250V040 15SM SCT250 M05/M07 A3014 RMK CI3
SLP231=
METAR CYSB 170200Z 27004KT 15SM SCT250 M03/M05 A3014 RMK CI3 SLP228=

TAF CYSB 170139Z 1702/1714 23006KT P6SM SCT220
BECMG 1702/1704 16005KT
BECMG 1704/1706 08005KT
RMK NXT FCST BY 170800Z=
Your time UTC time
Weather data provided by Environment Canada and NAV CANADA